Nagarote, Nicaragua

12:46 PM CST on September 03, 2015 (GMT -0600)
Augusto Cesar Sandino | | Change Station
CLOSE
Current Station
Airport
Location: Managua,
Elevation: 184 ft
Nearby Weather Stations

Elev 184 ft 12.14 °N, 86.17 °W | Updated 46 minutes ago

Partly Cloudy
Partly Cloudy
91 °F
Feels Like 93 °F
N
18
Wind Variable Wind from East

Today
High -- | Low -- °F
--% Chance of Precip.
Yesterday
High -- | Low -- °F
Precip. -- in
5:35 AM 5:55 PM
Waning Gibbous, 68% visible
Pressure 29.83 in
Visibility 6.2 miles
Clouds Few 92400 ft
Heat Index 93 °F
Dew Point 64 °F
Humidity 41%
Rainfall 0.00 in
Snow Depth Not available.
UV 16 out of 12
Pollen Not available.
Air Quality Not available.
Flu Activity Not available.
METAR MNMG 031800Z 08016KT 9999 FEW0924 33/18 Q1010 A2985 2AC080
Pressure 29.83 in
Visibility 6.2 miles
Clouds Few 92400 ft
Heat Index 93 °F
Dew Point 64 °F
Humidity 41%
Rainfall 0.00 in
Snow Depth Not available.
UV 16 out of 12
Pollen Not available.
Air Quality Not available.
Flu Activity Not available.
METAR MNMG 031800Z 08016KT 9999 FEW0924 33/18 Q1010 A2985 2AC080

10-Day Weather Forecast

×

Almanac

Astronomy

Sep. 03, 2015 Rise Set
Actual Time
Civil Twilight
Nautical Twilight
Astronomical Twilight
Moon
Length of Visible Light
Length of Day
Tomorrow will be .
, % of the Moon is Illuminated

Today's Extremes

Country Highs Country Lows

Community

WunderPhotos

Upload Photos

1,852,001 photos uploaded!

WunderBlogs® & News

Nearby

Air Quality

  Air Quality AQ Index Pollutant
Not available.

Snow Depth

Station Depth Elevation

Earthquake Activity

City Distance Mag. Time & Date
Minimum magnitude displayed is 2.5.

Coastal Water Temperatures

Place Temperature

Stations

Nearby Weather Stations

Station Location Temp. Windchill Dew Point Humidity Wind Precip. Elev Updated Type